ENZV

Stavanger , Sola Airport

Stavanger, Norway
METAR ENZV 180150Z 15013KT 9999 FEW005 BKN023 14/13 Q1009 REDZ
Observed Flight Rules
Aug-18 @ 01:50 UTC (40 minutes ago) Marginal Visual Flight Rules
Wind Visibility Clouds
150° at 13 knots 10,000+ meters
  • Few at 500' AGL
  • Broken at 2,300' AGL
Temperatures Readings
Current 14°C / 57°F
Dewpoint 13°C / 55°F
Humidity 94%
Altimeter 29.79" Hg
Pressure 1009 hPa
Elevation 9
METAR ENZV 180150Z 15013KT 9999 FEW005 BKN023 14/13 Q1009 REDZ
Observed Flight Rules
Aug-18 @ 01:50 UTC
(40 minutes ago)
MVFR
Wind Visibility
150° at 13 knots 10,000+ meters
Clouds
  • Few at 500' AGL
  • Broken at 2,300' AGL
Temperature Dewpoint
14°C / 57°F 13°C / 55°F
Humidity Altimeter Pressure
94% 29.79" Hg 1009 hPa